Detall de PIREP

Printer-friendly versionPDF version

[2015/12/09 08:24:00]
Flight IATA:CT3412
Pilot Number:012
Company ICAO:CAT
Aircraft Type:B763/F
PAX:200
Departing Airport: LEBL
Destination Airport: UUEE
Alternate Airport:UUDL
Online: VATSIM
Route:AGENA/M080F360 UM985 ABN UQ985 MALUG/M080F370 UM985 ABTAN ABLOM UM985 JAN UM866 DBV UL999 SUPAK L999 MNS T52 MOSON A104 FK
Flight Level:F370
No Slew and time accel
No pause
Crash detect
Detect pilot in Cockpit between each 30 and 45 minutes
08:24 Zero fuel Weight: 238292 Lbs, Fuel Weight: 55053 Lbs
08:24 VATSIM:LEBL 090800Z 33009KT 6000 FEW015 11/09 Q1036 NOSIG
08:24 VATSIM:UUEE 090800Z 24005MPS CAVOK M00/M03 Q1030 R25R/000062 R25L/000062 NOSIG
08:25 Parking Brakes off
08:32 Take-off
08:32 Take off Weight: 291663 Lbs
08:32 Wind: 329º @ 009 Knots Heading: 248º
08:32 POS N41º 17´ 12´´ E002º 05´ 14´´
08:32 Gear Up: 178 Knots
08:32 Flaps:2 at 178 Knots
08:33 Flaps:1 at 180Knots
08:34 Flaps:0 at 189 Knots
08:47 Wind:270º@057 Knots Heading: 076º Ground Speed: 517 Knots Altitude 36673 ft
09:02 Wind:279º@051 Knots Heading: 034º Ground Speed: 484 Knots Altitude 36561 ft
09:17 Wind:280º@043 Knots Heading: 041º Ground Speed: 481 Knots Altitude 36538 ft
09:32 Wind:280º@030 Knots Heading: 041º Ground Speed: 465 Knots Altitude 36581 ft
09:47 Wind:272º@015 Knots Heading: 055º Ground Speed: 465 Knots Altitude 36558 ft
09:51 TOC
09:51 Fuel Weight: 36652 Lb
10:02 Wind:273º@021 Knots Heading: 072º Ground Speed: 469 Knots Altitude 37568 ft
10:17 Wind:233º@017 Knots Heading: 047º Ground Speed: 469 Knots Altitude 37575 ft
10:32 Wind:211º@022 Knots Heading: 043º Ground Speed: 476 Knots Altitude 37503 ft
10:47 Wind:209º@033 Knots Heading: 046º Ground Speed: 485 Knots Altitude 37532 ft
11:02 Wind:218º@037 Knots Heading: 056º Ground Speed: 484 Knots Altitude 37572 ft
11:17 Wind:243º@044 Knots Heading: 054º Ground Speed: 492 Knots Altitude 37529 ft
11:32 Wind:255º@045 Knots Heading: 065º Ground Speed: 492 Knots Altitude 37559 ft
11:47 Wind:264º@047 Knots Heading: 067º Ground Speed: 497 Knots Altitude 37506 ft
11:49 TOD
11:49 Fuel Weight: 18785 Lb
12:02 Wind:300º@031 Knots Heading: 070º Ground Speed: 391 Knots Altitude 14176 ft
12:09 Flaps:1 at 230 Knots
12:11 Flaps:2 at 233 Knots
12:11 Gear Down: 225 Knots
12:12 Flaps:3 at 217 Knots
12:12 Flaps:4 at 206 Knots
12:12 Flaps:5 at 182 Knots
12:12 Flaps:4 at 181 Knots
12:12 Flaps:5 at 179 Knots
12:12 Flaps:4 at 178 Knots
12:12 Flaps:5 at 177 Knots
12:12 Flaps:4 at 176 Knots
12:12 Flaps:5 at 175 Knots
12:12 Flaps:6 at 169 Knots
12:13 TouchDown:Rate -203 ft/min Speed: 124 Knots
12:13 VATSIM:UUEE 091200Z 21006MPS CAVOK 00/M04 Q1027 R25R/000062 R25L/000062 NOSIG
12:13 Land
12:13 Wind:209º@010 Knots
12:13 Heading: 255º
12:13 Flight Duration: 03:41
12:13 Landing Weight: 254646 Lbs
12:13 POS N55º 58´ 25´´ E037º 25´ 27´´
12:15 Parking brakes on
12:15 Block to Block Duration: 03:50
12:15 Final Fuel: 15974 Lbls
12:15 Spent Fuel: 39078 Lbls
12:15 Flight Length: 1707 NM
12:15 TOD Land Length: 144 NM

Exportar CSV

Powered by Drupal - Modified by Danger4k